< < Back
Terminal Aerodrome Forecast


Current Version              Previous Versions:   1  2  3  4  5  6  7  8  9  

Terminal Aerodrome Forecast

572
FTUS44 KMRX 011736
TAFCHA
TAF
KCHA 011736Z 0118/0218 24006KT P6SM SCT050 SCT150 BKN200
     FM020000 00000KT P6SM SCT150
     FM021400 23005KT P6SM SCT040 BKN150=



Latest METAR

053
SAUS80 KWBC 020300 RRB
MTRCHA
METAR KCHA 020253Z 18004KT 10SM SCT160 27/21 A3009 RMK AO2 SLP178
T02720206 51015 $


USA.gov is the U.S. government's official web portal to all federal, state and local government web resources and services.